sensor_id;sensor_type;location;lat;lon;timestamp;P1;durP1;ratioP1;P2;durP2;ratioP2
64188;SDS011;50493;50.970;10.082;2023-11-19T00:00:51;2.50;;;1.48;;
64188;SDS011;50493;50.970;10.082;2023-11-19T00:03:16;3.90;;;2.15;;
64188;SDS011;50493;50.970;10.082;2023-11-19T00:05:44;4.03;;;2.08;;
64188;SDS011;50493;50.970;10.082;2023-11-19T00:08:13;6.13;;;2.72;;
64188;SDS011;50493;50.970;10.082;2023-11-19T00:10:38;3.50;;;1.90;;
64188;SDS011;50493;50.970;10.082;2023-11-19T00:13:03;11.27;;;5.25;;
64188;SDS011;50493;50.970;10.082;2023-11-19T00:15:29;4.60;;;2.20;;
64188;SDS011;50493;50.970;10.082;2023-11-19T00:17:55;4.28;;;2.08;;
64188;SDS011;50493;50.970;10.082;2023-11-19T00:20:20;18.48;;;11.40;;
64188;SDS011;50493;50.970;10.082;2023-11-19T00:22:48;6.10;;;3.50;;
64188;SDS011;50493;50.970;10.082;2023-11-19T00:25:16;3.58;;;2.10;;
64188;SDS011;50493;50.970;10.082;2023-11-19T00:27:41;3.20;;;2.00;;
64188;SDS011;50493;50.970;10.082;2023-11-19T00:30:10;4.60;;;2.58;;
64188;SDS011;50493;50.970;10.082;2023-11-19T00:32:35;3.38;;;2.00;;
64188;SDS011;50493;50.970;10.082;2023-11-19T00:35:03;3.92;;;2.17;;
64188;SDS011;50493;50.970;10.082;2023-11-19T00:37:29;3.40;;;1.90;;
64188;SDS011;50493;50.970;10.082;2023-11-19T00:39:56;3.85;;;2.00;;
64188;SDS011;50493;50.970;10.082;2023-11-19T00:42:21;3.10;;;1.92;;
64188;SDS011;50493;50.970;10.082;2023-11-19T00:44:47;3.03;;;1.60;;
64188;SDS011;50493;50.970;10.082;2023-11-19T00:47:12;3.58;;;1.90;;
64188;SDS011;50493;50.970;10.082;2023-11-19T00:49:38;2.40;;;1.40;;
64188;SDS011;50493;50.970;10.082;2023-11-19T00:52:03;3.78;;;1.30;;
64188;SDS011;50493;50.970;10.082;2023-11-19T00:54:29;3.50;;;1.80;;
64188;SDS011;50493;50.970;10.082;2023-11-19T00:56:56;3.83;;;1.90;;
64188;SDS011;50493;50.970;10.082;2023-11-19T00:59:21;3.45;;;1.88;;
64188;SDS011;50493;50.970;10.082;2023-11-19T01:01:47;3.50;;;1.75;;
64188;SDS011;50493;50.970;10.082;2023-11-19T01:04:18;2.70;;;1.50;;
64188;SDS011;50493;50.970;10.082;2023-11-19T01:06:44;4.40;;;1.70;;
64188;SDS011;50493;50.970;10.082;2023-11-19T01:09:09;2.75;;;1.40;;
64188;SDS011;50493;50.970;10.082;2023-11-19T01:11:35;3.65;;;2.42;;
64188;SDS011;50493;50.970;10.082;2023-11-19T01:14:02;3.08;;;2.00;;
64188;SDS011;50493;50.970;10.082;2023-11-19T01:16:27;3.15;;;1.92;;
64188;SDS011;50493;50.970;10.082;2023-11-19T01:18:53;2.80;;;1.40;;
64188;SDS011;50493;50.970;10.082;2023-11-19T01:21:18;2.17;;;1.30;;
64188;SDS011;50493;50.970;10.082;2023-11-19T01:23:44;2.95;;;1.48;;
64188;SDS011;50493;50.970;10.082;2023-11-19T01:26:10;1.90;;;1.17;;
64188;SDS011;50493;50.970;10.082;2023-11-19T01:28:37;1.90;;;1.25;;
64188;SDS011;50493;50.970;10.082;2023-11-19T01:31:05;2.58;;;1.33;;
64188;SDS011;50493;50.970;10.082;2023-11-19T01:33:33;2.28;;;1.30;;
64188;SDS011;50493;50.970;10.082;2023-11-19T01:35:59;2.88;;;1.50;;
64188;SDS011;50493;50.970;10.082;2023-11-19T01:38:24;2.38;;;1.38;;
64188;SDS011;50493;50.970;10.082;2023-11-19T01:40:49;2.25;;;1.15;;
64188;SDS011;50493;50.970;10.082;2023-11-19T01:45:59;2.22;;;1.45;;
64188;SDS011;50493;50.970;10.082;2023-11-19T01:48:26;2.67;;;1.63;;
64188;SDS011;50493;50.970;10.082;2023-11-19T01:50:51;2.45;;;1.40;;
64188;SDS011;50493;50.970;10.082;2023-11-19T01:53:18;2.17;;;1.33;;
64188;SDS011;50493;50.970;10.082;2023-11-19T01:55:43;3.30;;;1.48;;
64188;SDS011;50493;50.970;10.082;2023-11-19T01:58:10;2.70;;;1.58;;
64188;SDS011;50493;50.970;10.082;2023-11-19T02:00:37;2.28;;;1.50;;
64188;SDS011;50493;50.970;10.082;2023-11-19T02:03:03;2.60;;;1.60;;
64188;SDS011;50493;50.970;10.082;2023-11-19T02:05:33;2.75;;;1.60;;
64188;SDS011;50493;50.970;10.082;2023-11-19T02:07:59;2.42;;;1.33;;
64188;SDS011;50493;50.970;10.082;2023-11-19T02:10:25;3.10;;;1.85;;
64188;SDS011;50493;50.970;10.082;2023-11-19T02:12:50;1.77;;;1.25;;
64188;SDS011;50493;50.970;10.082;2023-11-19T02:15:16;2.97;;;1.40;;
64188;SDS011;50493;50.970;10.082;2023-11-19T02:17:44;2.03;;;1.20;;
64188;SDS011;50493;50.970;10.082;2023-11-19T02:20:09;2.40;;;1.33;;
64188;SDS011;50493;50.970;10.082;2023-11-19T02:22:41;1.88;;;1.10;;
64188;SDS011;50493;50.970;10.082;2023-11-19T02:25:07;2.10;;;1.23;;
64188;SDS011;50493;50.970;10.082;2023-11-19T02:27:42;1.70;;;1.20;;
64188;SDS011;50493;50.970;10.082;2023-11-19T02:30:11;2.00;;;1.30;;
64188;SDS011;50493;50.970;10.082;2023-11-19T02:32:36;3.63;;;1.42;;
64188;SDS011;50493;50.970;10.082;2023-11-19T02:35:06;2.17;;;1.25;;
64188;SDS011;50493;50.970;10.082;2023-11-19T02:37:33;2.72;;;1.40;;
64188;SDS011;50493;50.970;10.082;2023-11-19T02:39:58;2.20;;;1.27;;
64188;SDS011;50493;50.970;10.082;2023-11-19T02:42:34;1.77;;;1.30;;
64188;SDS011;50493;50.970;10.082;2023-11-19T02:45:02;2.42;;;1.20;;
64188;SDS011;50493;50.970;10.082;2023-11-19T02:47:32;2.28;;;1.40;;
64188;SDS011;50493;50.970;10.082;2023-11-19T02:49:58;2.33;;;1.30;;
64188;SDS011;50493;50.970;10.082;2023-11-19T02:52:23;2.78;;;1.30;;
64188;SDS011;50493;50.970;10.082;2023-11-19T02:54:50;2.08;;;1.35;;
64188;SDS011;50493;50.970;10.082;2023-11-19T02:57:15;2.20;;;1.30;;
64188;SDS011;50493;50.970;10.082;2023-11-19T02:59:44;2.25;;;1.30;;
64188;SDS011;50493;50.970;10.082;2023-11-19T03:02:10;2.42;;;1.48;;
64188;SDS011;50493;50.970;10.082;2023-11-19T03:04:41;2.58;;;1.40;;
64188;SDS011;50493;50.970;10.082;2023-11-19T03:07:08;1.80;;;1.20;;
64188;SDS011;50493;50.970;10.082;2023-11-19T03:09:34;2.75;;;1.35;;
64188;SDS011;50493;50.970;10.082;2023-11-19T03:12:00;2.90;;;1.58;;
64188;SDS011;50493;50.970;10.082;2023-11-19T03:14:25;2.78;;;1.50;;
64188;SDS011;50493;50.970;10.082;2023-11-19T03:16:51;2.30;;;1.33;;
64188;SDS011;50493;50.970;10.082;2023-11-19T03:19:18;2.88;;;1.63;;
64188;SDS011;50493;50.970;10.082;2023-11-19T03:21:43;2.05;;;1.40;;
64188;SDS011;50493;50.970;10.082;2023-11-19T03:24:09;2.53;;;1.48;;
64188;SDS011;50493;50.970;10.082;2023-11-19T03:26:35;2.30;;;1.42;;
64188;SDS011;50493;50.970;10.082;2023-11-19T03:29:02;2.53;;;1.40;;
64188;SDS011;50493;50.970;10.082;2023-11-19T03:31:27;2.17;;;1.30;;
64188;SDS011;50493;50.970;10.082;2023-11-19T03:33:53;1.80;;;1.30;;
64188;SDS011;50493;50.970;10.082;2023-11-19T03:36:20;2.25;;;1.50;;
64188;SDS011;50493;50.970;10.082;2023-11-19T03:38:45;2.28;;;1.38;;
64188;SDS011;50493;50.970;10.082;2023-11-19T03:41:11;3.22;;;1.40;;
64188;SDS011;50493;50.970;10.082;2023-11-19T03:43:37;2.30;;;1.40;;
64188;SDS011;50493;50.970;10.082;2023-11-19T03:46:03;2.38;;;1.35;;
64188;SDS011;50493;50.970;10.082;2023-11-19T03:48:30;2.22;;;1.20;;
64188;SDS011;50493;50.970;10.082;2023-11-19T03:50:55;2.00;;;1.40;;
64188;SDS011;50493;50.970;10.082;2023-11-19T03:53:22;2.17;;;1.42;;
64188;SDS011;50493;50.970;10.082;2023-11-19T03:55:49;2.28;;;1.23;;
64188;SDS011;50493;50.970;10.082;2023-11-19T03:58:15;2.38;;;1.42;;
64188;SDS011;50493;50.970;10.082;2023-11-19T04:00:40;2.28;;;1.38;;
64188;SDS011;50493;50.970;10.082;2023-11-19T04:03:06;2.42;;;1.40;;
64188;SDS011;50493;50.970;10.082;2023-11-19T04:05:31;2.08;;;1.38;;
64188;SDS011;50493;50.970;10.082;2023-11-19T04:07:56;2.65;;;1.55;;
64188;SDS011;50493;50.970;10.082;2023-11-19T04:10:23;2.17;;;1.50;;
64188;SDS011;50493;50.970;10.082;2023-11-19T04:12:48;4.45;;;1.50;;
64188;SDS011;50493;50.970;10.082;2023-11-19T04:15:14;1.75;;;1.20;;
64188;SDS011;50493;50.970;10.082;2023-11-19T04:17:40;2.45;;;1.40;;
64188;SDS011;50493;50.970;10.082;2023-11-19T04:20:05;3.58;;;1.70;;
64188;SDS011;50493;50.970;10.082;2023-11-19T04:22:35;2.10;;;1.20;;
64188;SDS011;50493;50.970;10.082;2023-11-19T04:25:01;4.25;;;1.45;;
64188;SDS011;50493;50.970;10.082;2023-11-19T04:27:28;2.75;;;1.55;;
64188;SDS011;50493;50.970;10.082;2023-11-19T04:29:53;3.47;;;1.70;;
64188;SDS011;50493;50.970;10.082;2023-11-19T04:32:19;2.53;;;1.63;;
64188;SDS011;50493;50.970;10.082;2023-11-19T04:34:46;3.45;;;2.20;;
64188;SDS011;50493;50.970;10.082;2023-11-19T04:37:11;4.65;;;2.10;;
64188;SDS011;50493;50.970;10.082;2023-11-19T04:39:36;3.88;;;2.22;;
64188;SDS011;50493;50.970;10.082;2023-11-19T04:42:02;2.60;;;1.70;;
64188;SDS011;50493;50.970;10.082;2023-11-19T04:44:30;3.30;;;1.85;;
64188;SDS011;50493;50.970;10.082;2023-11-19T04:46:56;3.00;;;1.77;;
64188;SDS011;50493;50.970;10.082;2023-11-19T04:49:22;5.07;;;2.92;;
64188;SDS011;50493;50.970;10.082;2023-11-19T04:51:47;4.70;;;2.85;;
64188;SDS011;50493;50.970;10.082;2023-11-19T04:54:13;4.97;;;2.95;;
64188;SDS011;50493;50.970;10.082;2023-11-19T04:56:39;5.18;;;3.15;;
64188;SDS011;50493;50.970;10.082;2023-11-19T04:59:05;5.00;;;2.58;;
64188;SDS011;50493;50.970;10.082;2023-11-19T05:01:32;3.88;;;2.53;;
64188;SDS011;50493;50.970;10.082;2023-11-19T05:03:58;4.68;;;2.90;;
64188;SDS011;50493;50.970;10.082;2023-11-19T05:06:26;4.35;;;2.28;;
64188;SDS011;50493;50.970;10.082;2023-11-19T05:08:53;4.03;;;2.35;;
64188;SDS011;50493;50.970;10.082;2023-11-19T05:11:19;2.67;;;1.80;;
64188;SDS011;50493;50.970;10.082;2023-11-19T05:13:45;2.67;;;1.70;;
64188;SDS011;50493;50.970;10.082;2023-11-19T05:16:10;3.38;;;1.52;;
64188;SDS011;50493;50.970;10.082;2023-11-19T05:18:37;3.13;;;1.80;;
64188;SDS011;50493;50.970;10.082;2023-11-19T05:21:02;3.10;;;1.80;;
64188;SDS011;50493;50.970;10.082;2023-11-19T05:23:28;2.92;;;2.00;;
64188;SDS011;50493;50.970;10.082;2023-11-19T05:25:53;3.42;;;2.05;;
64188;SDS011;50493;50.970;10.082;2023-11-19T05:28:18;3.95;;;2.00;;
64188;SDS011;50493;50.970;10.082;2023-11-19T05:30:44;2.42;;;1.38;;
64188;SDS011;50493;50.970;10.082;2023-11-19T05:33:10;3.60;;;1.58;;
64188;SDS011;50493;50.970;10.082;2023-11-19T05:35:37;1.90;;;1.25;;
64188;SDS011;50493;50.970;10.082;2023-11-19T05:38:02;2.38;;;1.08;;
64188;SDS011;50493;50.970;10.082;2023-11-19T05:40:28;1.75;;;1.10;;
64188;SDS011;50493;50.970;10.082;2023-11-19T05:42:53;1.27;;;0.90;;
64188;SDS011;50493;50.970;10.082;2023-11-19T05:45:19;2.97;;;1.10;;
64188;SDS011;50493;50.970;10.082;2023-11-19T05:47:44;1.25;;;1.00;;
64188;SDS011;50493;50.970;10.082;2023-11-19T05:50:10;1.42;;;1.00;;
64188;SDS011;50493;50.970;10.082;2023-11-19T05:52:37;1.23;;;0.95;;
64188;SDS011;50493;50.970;10.082;2023-11-19T05:55:02;2.05;;;1.00;;
64188;SDS011;50493;50.970;10.082;2023-11-19T05:57:34;2.33;;;1.10;;
64188;SDS011;50493;50.970;10.082;2023-11-19T06:00:00;1.48;;;0.93;;
64188;SDS011;50493;50.970;10.082;2023-11-19T06:02:25;1.63;;;1.08;;
64188;SDS011;50493;50.970;10.082;2023-11-19T06:04:52;2.28;;;1.20;;
64188;SDS011;50493;50.970;10.082;2023-11-19T06:07:17;2.58;;;1.27;;
64188;SDS011;50493;50.970;10.082;2023-11-19T06:09:44;1.50;;;1.08;;
64188;SDS011;50493;50.970;10.082;2023-11-19T06:12:09;2.05;;;1.42;;
64188;SDS011;50493;50.970;10.082;2023-11-19T06:14:35;3.85;;;1.50;;
64188;SDS011;50493;50.970;10.082;2023-11-19T06:17:00;2.30;;;1.55;;
64188;SDS011;50493;50.970;10.082;2023-11-19T06:19:25;3.22;;;1.60;;
64188;SDS011;50493;50.970;10.082;2023-11-19T06:21:52;2.13;;;1.30;;
64188;SDS011;50493;50.970;10.082;2023-11-19T06:24:17;3.22;;;1.80;;
64188;SDS011;50493;50.970;10.082;2023-11-19T06:26:44;3.20;;;1.60;;
64188;SDS011;50493;50.970;10.082;2023-11-19T06:29:09;2.58;;;1.58;;
64188;SDS011;50493;50.970;10.082;2023-11-19T06:31:34;3.03;;;1.35;;
64188;SDS011;50493;50.970;10.082;2023-11-19T06:34:00;2.08;;;1.10;;
64188;SDS011;50493;50.970;10.082;2023-11-19T06:36:25;2.65;;;1.10;;
64188;SDS011;50493;50.970;10.082;2023-11-19T06:38:51;2.35;;;1.13;;
64188;SDS011;50493;50.970;10.082;2023-11-19T06:41:17;3.63;;;1.20;;
64188;SDS011;50493;50.970;10.082;2023-11-19T06:43:43;4.47;;;1.40;;
64188;SDS011;50493;50.970;10.082;2023-11-19T06:46:15;3.22;;;1.40;;
64188;SDS011;50493;50.970;10.082;2023-11-19T06:48:41;5.15;;;1.40;;
64188;SDS011;50493;50.970;10.082;2023-11-19T06:51:09;2.22;;;1.30;;
64188;SDS011;50493;50.970;10.082;2023-11-19T06:53:34;4.88;;;1.40;;
64188;SDS011;50493;50.970;10.082;2023-11-19T06:55:59;2.20;;;1.20;;
64188;SDS011;50493;50.970;10.082;2023-11-19T06:58:25;2.10;;;1.20;;
64188;SDS011;50493;50.970;10.082;2023-11-19T07:00:52;2.33;;;1.20;;
64188;SDS011;50493;50.970;10.082;2023-11-19T07:03:17;2.50;;;1.30;;
64188;SDS011;50493;50.970;10.082;2023-11-19T07:05:43;2.20;;;1.10;;
64188;SDS011;50493;50.970;10.082;2023-11-19T07:08:08;4.00;;;1.33;;
64188;SDS011;50493;50.970;10.082;2023-11-19T07:10:34;3.50;;;1.20;;
64188;SDS011;50493;50.970;10.082;2023-11-19T07:12:59;2.80;;;1.08;;
64188;SDS011;50493;50.970;10.082;2023-11-19T07:15:25;2.95;;;1.20;;
64188;SDS011;50493;50.970;10.082;2023-11-19T07:17:52;3.53;;;1.10;;
64188;SDS011;50493;50.970;10.082;2023-11-19T07:20:19;4.15;;;1.10;;
64188;SDS011;50493;50.970;10.082;2023-11-19T07:22:44;4.00;;;1.40;;
64188;SDS011;50493;50.970;10.082;2023-11-19T07:25:13;3.30;;;1.10;;
64188;SDS011;50493;50.970;10.082;2023-11-19T07:27:39;1.90;;;0.93;;
64188;SDS011;50493;50.970;10.082;2023-11-19T07:30:05;3.42;;;1.30;;
64188;SDS011;50493;50.970;10.082;2023-11-19T07:32:32;2.78;;;1.15;;
64188;SDS011;50493;50.970;10.082;2023-11-19T07:34:59;2.40;;;1.05;;
64188;SDS011;50493;50.970;10.082;2023-11-19T07:37:24;4.03;;;1.40;;
64188;SDS011;50493;50.970;10.082;2023-11-19T07:39:50;2.38;;;1.20;;
64188;SDS011;50493;50.970;10.082;2023-11-19T07:42:15;3.47;;;1.25;;
64188;SDS011;50493;50.970;10.082;2023-11-19T07:44:40;4.10;;;1.40;;
64188;SDS011;50493;50.970;10.082;2023-11-19T07:47:06;2.42;;;1.30;;
64188;SDS011;50493;50.970;10.082;2023-11-19T07:49:32;2.90;;;1.17;;
64188;SDS011;50493;50.970;10.082;2023-11-19T07:51:59;2.58;;;1.30;;
64188;SDS011;50493;50.970;10.082;2023-11-19T07:54:24;2.60;;;1.10;;
64188;SDS011;50493;50.970;10.082;2023-11-19T07:56:50;3.08;;;1.23;;
64188;SDS011;50493;50.970;10.082;2023-11-19T07:59:15;1.70;;;1.10;;
64188;SDS011;50493;50.970;10.082;2023-11-19T08:01:41;3.78;;;1.33;;
64188;SDS011;50493;50.970;10.082;2023-11-19T08:04:06;3.60;;;1.33;;
64188;SDS011;50493;50.970;10.082;2023-11-19T08:06:31;5.97;;;2.05;;
64188;SDS011;50493;50.970;10.082;2023-11-19T08:08:58;3.80;;;1.50;;
64188;SDS011;50493;50.970;10.082;2023-11-19T08:11:24;5.95;;;2.00;;
64188;SDS011;50493;50.970;10.082;2023-11-19T08:13:50;7.03;;;1.77;;
64188;SDS011;50493;50.970;10.082;2023-11-19T08:16:15;4.60;;;1.70;;
64188;SDS011;50493;50.970;10.082;2023-11-19T08:18:41;5.47;;;1.73;;
64188;SDS011;50493;50.970;10.082;2023-11-19T08:21:07;5.55;;;1.85;;
64188;SDS011;50493;50.970;10.082;2023-11-19T08:23:32;3.95;;;1.45;;
64188;SDS011;50493;50.970;10.082;2023-11-19T08:25:59;3.90;;;1.38;;
64188;SDS011;50493;50.970;10.082;2023-11-19T08:28:25;3.63;;;1.10;;
64188;SDS011;50493;50.970;10.082;2023-11-19T08:30:50;3.22;;;1.23;;
64188;SDS011;50493;50.970;10.082;2023-11-19T08:33:15;6.75;;;1.65;;
64188;SDS011;50493;50.970;10.082;2023-11-19T08:35:41;4.57;;;1.23;;
64188;SDS011;50493;50.970;10.082;2023-11-19T08:38:07;4.13;;;1.50;;
64188;SDS011;50493;50.970;10.082;2023-11-19T08:40:32;6.40;;;1.45;;
64188;SDS011;50493;50.970;10.082;2023-11-19T08:42:59;5.60;;;1.77;;
64188;SDS011;50493;50.970;10.082;2023-11-19T08:45:24;10.43;;;1.98;;
64188;SDS011;50493;50.970;10.082;2023-11-19T08:47:50;4.15;;;2.00;;
64188;SDS011;50493;50.970;10.082;2023-11-19T08:50:15;7.63;;;1.80;;
64188;SDS011;50493;50.970;10.082;2023-11-19T08:52:41;5.05;;;1.52;;
64188;SDS011;50493;50.970;10.082;2023-11-19T08:55:06;4.75;;;1.45;;
64188;SDS011;50493;50.970;10.082;2023-11-19T08:57:32;7.13;;;1.73;;
64188;SDS011;50493;50.970;10.082;2023-11-19T08:59:59;5.20;;;1.77;;
64188;SDS011;50493;50.970;10.082;2023-11-19T09:02:24;4.55;;;1.38;;
64188;SDS011;50493;50.970;10.082;2023-11-19T09:04:50;4.72;;;1.50;;
64188;SDS011;50493;50.970;10.082;2023-11-19T09:07:16;5.95;;;1.90;;
64188;SDS011;50493;50.970;10.082;2023-11-19T09:09:41;6.22;;;1.88;;
64188;SDS011;50493;50.970;10.082;2023-11-19T09:12:06;6.20;;;2.00;;
64188;SDS011;50493;50.970;10.082;2023-11-19T09:14:32;14.75;;;3.03;;
64188;SDS011;50493;50.970;10.082;2023-11-19T09:16:59;12.15;;;3.65;;
64188;SDS011;50493;50.970;10.082;2023-11-19T09:19:25;9.50;;;2.45;;
64188;SDS011;50493;50.970;10.082;2023-11-19T09:21:54;8.82;;;2.60;;
64188;SDS011;50493;50.970;10.082;2023-11-19T09:24:19;7.85;;;2.63;;
64188;SDS011;50493;50.970;10.082;2023-11-19T09:26:45;12.20;;;3.65;;
64188;SDS011;50493;50.970;10.082;2023-11-19T09:29:10;5.50;;;2.17;;
64188;SDS011;50493;50.970;10.082;2023-11-19T09:31:37;11.93;;;3.83;;
64188;SDS011;50493;50.970;10.082;2023-11-19T09:34:04;9.20;;;2.10;;
64188;SDS011;50493;50.970;10.082;2023-11-19T09:36:30;7.85;;;2.05;;
64188;SDS011;50493;50.970;10.082;2023-11-19T09:38:56;4.53;;;2.22;;
64188;SDS011;50493;50.970;10.082;2023-11-19T09:41:22;5.38;;;2.00;;
64188;SDS011;50493;50.970;10.082;2023-11-19T09:43:48;9.10;;;2.22;;
64188;SDS011;50493;50.970;10.082;2023-11-19T09:46:15;7.30;;;2.35;;
64188;SDS011;50493;50.970;10.082;2023-11-19T09:48:41;9.80;;;2.13;;
64188;SDS011;50493;50.970;10.082;2023-11-19T09:51:09;9.52;;;2.25;;
64188;SDS011;50493;50.970;10.082;2023-11-19T09:53:35;8.65;;;2.67;;
64188;SDS011;50493;50.970;10.082;2023-11-19T09:56:01;5.70;;;1.90;;
64188;SDS011;50493;50.970;10.082;2023-11-19T09:58:28;8.95;;;2.20;;
64188;SDS011;50493;50.970;10.082;2023-11-19T10:00:54;8.10;;;2.25;;
64188;SDS011;50493;50.970;10.082;2023-11-19T10:03:19;4.93;;;1.98;;
64188;SDS011;50493;50.970;10.082;2023-11-19T10:05:48;7.50;;;2.25;;
64188;SDS011;50493;50.970;10.082;2023-11-19T10:08:14;8.40;;;2.20;;
64188;SDS011;50493;50.970;10.082;2023-11-19T10:10:41;5.38;;;1.90;;
64188;SDS011;50493;50.970;10.082;2023-11-19T10:13:06;4.22;;;1.75;;
64188;SDS011;50493;50.970;10.082;2023-11-19T10:15:35;8.35;;;2.10;;
64188;SDS011;50493;50.970;10.082;2023-11-19T10:18:01;4.28;;;1.63;;
64188;SDS011;50493;50.970;10.082;2023-11-19T10:20:27;6.70;;;1.80;;
64188;SDS011;50493;50.970;10.082;2023-11-19T10:22:53;6.60;;;1.85;;
64188;SDS011;50493;50.970;10.082;2023-11-19T10:25:24;6.32;;;1.75;;
64188;SDS011;50493;50.970;10.082;2023-11-19T10:27:51;4.88;;;1.77;;
64188;SDS011;50493;50.970;10.082;2023-11-19T10:30:17;5.88;;;1.80;;
64188;SDS011;50493;50.970;10.082;2023-11-19T10:32:43;6.75;;;1.55;;
64188;SDS011;50493;50.970;10.082;2023-11-19T10:35:09;8.00;;;1.92;;
64188;SDS011;50493;50.970;10.082;2023-11-19T10:37:37;6.30;;;1.85;;
64188;SDS011;50493;50.970;10.082;2023-11-19T10:40:02;6.93;;;1.70;;
64188;SDS011;50493;50.970;10.082;2023-11-19T10:42:31;8.20;;;1.90;;
64188;SDS011;50493;50.970;10.082;2023-11-19T10:44:57;8.80;;;2.05;;
64188;SDS011;50493;50.970;10.082;2023-11-19T10:47:23;3.83;;;1.63;;
64188;SDS011;50493;50.970;10.082;2023-11-19T10:49:48;6.05;;;2.00;;
64188;SDS011;50493;50.970;10.082;2023-11-19T10:52:15;10.63;;;2.65;;
64188;SDS011;50493;50.970;10.082;2023-11-19T10:54:44;10.82;;;2.33;;
64188;SDS011;50493;50.970;10.082;2023-11-19T10:57:15;8.23;;;2.13;;
64188;SDS011;50493;50.970;10.082;2023-11-19T10:59:47;9.07;;;2.40;;
64188;SDS011;50493;50.970;10.082;2023-11-19T11:02:15;7.03;;;1.95;;
64188;SDS011;50493;50.970;10.082;2023-11-19T11:04:44;8.73;;;2.30;;
64188;SDS011;50493;50.970;10.082;2023-11-19T11:07:12;8.93;;;2.17;;
64188;SDS011;50493;50.970;10.082;2023-11-19T11:09:40;4.30;;;1.70;;
64188;SDS011;50493;50.970;10.082;2023-11-19T11:12:06;5.22;;;1.98;;
64188;SDS011;50493;50.970;10.082;2023-11-19T11:14:35;8.75;;;2.10;;
64188;SDS011;50493;50.970;10.082;2023-11-19T11:17:04;9.93;;;2.10;;
64188;SDS011;50493;50.970;10.082;2023-11-19T11:19:33;8.02;;;1.60;;
64188;SDS011;50493;50.970;10.082;2023-11-19T11:21:59;5.50;;;1.80;;
64188;SDS011;50493;50.970;10.082;2023-11-19T11:24:35;9.90;;;2.08;;
64188;SDS011;50493;50.970;10.082;2023-11-19T11:27:14;6.18;;;1.60;;
64188;SDS011;50493;50.970;10.082;2023-11-19T11:29:56;7.85;;;2.00;;
64188;SDS011;50493;50.970;10.082;2023-11-19T11:35:03;4.30;;;1.80;;
64188;SDS011;50493;50.970;10.082;2023-11-19T11:37:44;8.65;;;2.20;;
64188;SDS011;50493;50.970;10.082;2023-11-19T11:40:14;7.13;;;1.83;;
64188;SDS011;50493;50.970;10.082;2023-11-19T11:42:41;8.13;;;2.00;;
64188;SDS011;50493;50.970;10.082;2023-11-19T11:45:07;6.00;;;1.67;;
64188;SDS011;50493;50.970;10.082;2023-11-19T11:50:51;10.48;;;2.13;;
64188;SDS011;50493;50.970;10.082;2023-11-19T11:53:21;6.28;;;1.80;;
64188;SDS011;50493;50.970;10.082;2023-11-19T11:55:53;13.10;;;2.45;;
64188;SDS011;50493;50.970;10.082;2023-11-19T11:58:28;9.82;;;1.70;;
64188;SDS011;50493;50.970;10.082;2023-11-19T12:00:59;11.85;;;2.22;;
64188;SDS011;50493;50.970;10.082;2023-11-19T12:03:29;7.97;;;1.83;;
64188;SDS011;50493;50.970;10.082;2023-11-19T12:05:56;7.25;;;1.95;;
64188;SDS011;50493;50.970;10.082;2023-11-19T12:08:24;9.25;;;1.90;;
64188;SDS011;50493;50.970;10.082;2023-11-19T12:10:51;16.05;;;2.42;;
64188;SDS011;50493;50.970;10.082;2023-11-19T12:13:19;5.45;;;1.75;;
64188;SDS011;50493;50.970;10.082;2023-11-19T12:16:07;7.03;;;1.70;;
64188;SDS011;50493;50.970;10.082;2023-11-19T12:18:34;4.50;;;1.75;;
64188;SDS011;50493;50.970;10.082;2023-11-19T12:21:00;8.63;;;2.10;;
64188;SDS011;50493;50.970;10.082;2023-11-19T12:23:27;6.60;;;1.80;;
64188;SDS011;50493;50.970;10.082;2023-11-19T12:25:54;8.20;;;1.85;;
64188;SDS011;50493;50.970;10.082;2023-11-19T12:28:20;10.00;;;2.00;;
64188;SDS011;50493;50.970;10.082;2023-11-19T12:30:46;15.73;;;2.20;;
64188;SDS011;50493;50.970;10.082;2023-11-19T12:33:13;9.63;;;2.00;;
64188;SDS011;50493;50.970;10.082;2023-11-19T12:35:41;10.00;;;2.25;;
64188;SDS011;50493;50.970;10.082;2023-11-19T12:38:07;9.75;;;2.28;;
64188;SDS011;50493;50.970;10.082;2023-11-19T12:40:33;7.20;;;1.75;;
64188;SDS011;50493;50.970;10.082;2023-11-19T12:42:58;11.90;;;2.13;;
64188;SDS011;50493;50.970;10.082;2023-11-19T12:45:25;11.45;;;2.00;;
64188;SDS011;50493;50.970;10.082;2023-11-19T12:48:06;8.05;;;2.10;;
64188;SDS011;50493;50.970;10.082;2023-11-19T12:53:18;7.47;;;1.63;;
64188;SDS011;50493;50.970;10.082;2023-11-19T12:55:43;8.25;;;1.58;;
64188;SDS011;50493;50.970;10.082;2023-11-19T12:58:09;8.48;;;2.03;;
64188;SDS011;50493;50.970;10.082;2023-11-19T13:00:34;6.65;;;1.98;;
64188;SDS011;50493;50.970;10.082;2023-11-19T13:03:00;12.15;;;1.92;;
64188;SDS011;50493;50.970;10.082;2023-11-19T13:05:26;7.45;;;1.83;;
64188;SDS011;50493;50.970;10.082;2023-11-19T13:08:01;9.20;;;2.00;;
64188;SDS011;50493;50.970;10.082;2023-11-19T13:13:02;8.57;;;1.90;;
64188;SDS011;50493;50.970;10.082;2023-11-19T13:15:29;7.50;;;1.70;;
64188;SDS011;50493;50.970;10.082;2023-11-19T13:17:54;9.32;;;1.80;;
64188;SDS011;50493;50.970;10.082;2023-11-19T13:20:19;6.78;;;2.00;;
64188;SDS011;50493;50.970;10.082;2023-11-19T13:22:53;8.55;;;1.83;;
64188;SDS011;50493;50.970;10.082;2023-11-19T13:25:23;7.90;;;1.92;;
64188;SDS011;50493;50.970;10.082;2023-11-19T13:27:49;14.50;;;2.05;;
64188;SDS011;50493;50.970;10.082;2023-11-19T13:30:14;10.93;;;2.42;;
64188;SDS011;50493;50.970;10.082;2023-11-19T13:32:41;6.13;;;1.80;;
64188;SDS011;50493;50.970;10.082;2023-11-19T13:35:06;7.53;;;1.60;;
64188;SDS011;50493;50.970;10.082;2023-11-19T13:37:33;6.65;;;1.48;;
64188;SDS011;50493;50.970;10.082;2023-11-19T13:39:59;6.85;;;1.60;;
64188;SDS011;50493;50.970;10.082;2023-11-19T13:42:26;10.60;;;2.28;;
64188;SDS011;50493;50.970;10.082;2023-11-19T13:44:52;10.48;;;2.10;;
64188;SDS011;50493;50.970;10.082;2023-11-19T13:47:17;8.10;;;1.90;;
64188;SDS011;50493;50.970;10.082;2023-11-19T13:49:44;8.35;;;2.10;;
64188;SDS011;50493;50.970;10.082;2023-11-19T13:52:09;9.70;;;2.13;;
64188;SDS011;50493;50.970;10.082;2023-11-19T13:54:36;13.60;;;2.42;;
64188;SDS011;50493;50.970;10.082;2023-11-19T13:57:01;13.50;;;1.83;;
64188;SDS011;50493;50.970;10.082;2023-11-19T13:59:30;6.32;;;1.80;;
64188;SDS011;50493;50.970;10.082;2023-11-19T14:01:57;6.22;;;1.67;;
64188;SDS011;50493;50.970;10.082;2023-11-19T14:04:22;9.45;;;2.20;;
64188;SDS011;50493;50.970;10.082;2023-11-19T14:06:48;4.88;;;1.63;;
64188;SDS011;50493;50.970;10.082;2023-11-19T14:09:13;5.28;;;1.67;;
64188;SDS011;50493;50.970;10.082;2023-11-19T14:11:38;9.32;;;2.03;;
64188;SDS011;50493;50.970;10.082;2023-11-19T14:14:04;5.63;;;1.88;;
64188;SDS011;50493;50.970;10.082;2023-11-19T14:16:31;9.95;;;2.38;;
64188;SDS011;50493;50.970;10.082;2023-11-19T14:18:57;7.38;;;2.30;;
64188;SDS011;50493;50.970;10.082;2023-11-19T14:21:22;7.82;;;2.13;;
64188;SDS011;50493;50.970;10.082;2023-11-19T14:23:48;6.22;;;1.75;;
64188;SDS011;50493;50.970;10.082;2023-11-19T14:26:13;5.57;;;2.03;;
64188;SDS011;50493;50.970;10.082;2023-11-19T14:28:39;6.22;;;1.90;;
64188;SDS011;50493;50.970;10.082;2023-11-19T14:31:04;6.22;;;2.15;;
64188;SDS011;50493;50.970;10.082;2023-11-19T14:33:31;7.30;;;2.20;;
64188;SDS011;50493;50.970;10.082;2023-11-19T14:35:57;10.00;;;2.90;;
64188;SDS011;50493;50.970;10.082;2023-11-19T14:38:22;7.95;;;2.15;;
64188;SDS011;50493;50.970;10.082;2023-11-19T14:40:48;8.07;;;2.00;;
64188;SDS011;50493;50.970;10.082;2023-11-19T14:43:13;6.15;;;2.03;;